Südanflug-Wetter

Südanflüge sind sowohl am Euroairport Basel-Mulhouse-Freiburg als auch am Flughafen Unique Zürich ein Thema für die Anwohner. In Basel hängen Südanflüge von den Windverhältnissen ab. Für den Euroairport Basel-Mulhouse-Freiburg bereitet MeteoNews deshalb aktuelle Winddaten auf, die direkt auf der Homepage des Flughafens eingebunden werden. Angaben zum Flughafen Zürich finden Sie hier.

In Zürich sind Südanflüge auf die Piste 34 möglich, wenn die horizontale Sichtweite mindestens 750 m beträgt und die Wolkenuntergrenze im Anflugsektor nicht tiefer als 300 Fuss (knapp 100 m) liegt (diese Werte gelten seit dem 1. November 2004).

Prognose für Südanflüge

Am Sonntag sind Südanflüge möglich.
(Prognose ohne Gewähr. Die Vorhersage wird mehrmals täglich aktualisiert. Verantwortlicher Meteorologe: Roger Perret, 22.07.2017 14:44)

Analyse der letzten METAR-Messungen

Unser Tool wertet die letzten 20 offiziellen Wettermeldungen (METAR) des Flughafens Zürich aus und entscheidet aufgrund der beiden Werte für Sichtweite und Ceiling (Hauptwolkenuntergrenze), ob Südanflüge nach obiger Definition möglich wären. Allerdings repräsentiert der Wert für die Wolkenuntergrenze in der METAR-Meldung nicht die Bewölkung im Anflugsektor sondern generell um den Flughafen. Da über die Bewölkung im Anflugsektor kurzfristig aufgrund von Beobachtungen des Towers und von Piloten entschieden wird, kann die Angabe unseres Tools in gewissen Fällen von den realen Entscheiden der Flugsicherung abweichen.

Südanflüge Datum Uhrzeit Sichtweite Ceiling Vollständige METAR-Meldung
möglich 2017-07-22 21:20:00 > 10 km 5490 m LSZH 221920Z VRB02KT 9999 FEW050TCU SCT120 BKN180 21/16 Q1015 BECMG TSRA
möglich 2017-07-22 20:50:00 > 10 km LSZH 221850Z 33004KT 300V010 CAVOK 21/16 Q1015 NOSIG
möglich 2017-07-22 20:20:00 > 10 km LSZH 221820Z 35003KT 320V020 CAVOK 23/15 Q1015 NOSIG
möglich 2017-07-22 19:50:00 > 10 km 5180 m LSZH 221750Z 34004KT 9999 FEW055TCU SCT150 OVC170 23/14 Q1015 NOSIG
möglich 2017-07-22 19:20:00 > 10 km 4570 m LSZH 221720Z 34005KT 300V010 9999 FEW055TCU BKN150 24/15 Q1015 NOSIG
möglich 2017-07-22 18:50:00 > 10 km 4880 m LSZH 221650Z 31012KT 9999 FEW055TCU SCT110 BKN160 24/15 Q1015 NOSIG
möglich 2017-07-22 18:20:00 > 10 km 3350 m LSZH 221620Z 33007KT 9999 FEW055TCU BKN110 25/15 Q1015 NOSIG
möglich 2017-07-22 17:50:00 > 10 km 3660 m LSZH 221550Z 33007KT 9999 FEW050 FEW055TCU BKN120 25/14 Q1015 NOSIG
möglich 2017-07-22 17:20:00 > 10 km LSZH 221520Z 28004KT 210V340 9999 FEW050 FEW055TCU SCT150 BKN300 27/14 Q1015 NOSIG
möglich 2017-07-22 16:50:00 > 10 km LSZH 221450Z VRB03KT 9999 FEW050 FEW055TCU 27/14 Q1015 NOSIG
möglich 2017-07-22 16:20:00 > 10 km LSZH 221420Z 25004KT 170V310 9999 FEW050 FEW055TCU 28/13 Q1015 NOSIG
möglich 2017-07-22 15:50:00 > 10 km LSZH 221350Z 31008KT 260V350 9999 FEW045 FEW050TCU SCT300 27/14 Q1015 NOSIG
möglich 2017-07-22 15:20:00 > 10 km LSZH 221320Z 28006KT 250V330 9999 FEW040 FEW045TCU SCT180 27/15 Q1015 NOSIG
möglich 2017-07-22 14:50:00 > 10 km LSZH 221250Z VRB03KT 9999 FEW040 FEW045TCU SCT250 27/15 Q1015 NOSIG
möglich 2017-07-22 14:20:00 > 10 km LSZH 221220Z 23008KT 190V300 9999 FEW040 FEW045TCU 26/15 Q1015 NOSIG
möglich 2017-07-22 13:50:00 > 10 km LSZH 221150Z 26008KT 200V280 9999 FEW040 26/16 Q1016 NOSIG
möglich 2017-07-22 13:20:00 > 10 km LSZH 221120Z 26006KT 200V340 9999 FEW040 SCT250 25/14 Q1016 NOSIG
möglich 2017-07-22 12:50:00 > 10 km LSZH 221050Z VRB04KT 9999 FEW040 SCT250 25/15 Q1016 NOSIG
möglich 2017-07-22 12:20:00 > 10 km LSZH 221020Z 22004KT 150V300 9999 FEW035 24/15 Q1016 NOSIG
möglich 2017-07-22 11:50:00 > 10 km LSZH 220950Z 21004KT 160V250 9999 FEW030 SCT250 23/16 Q1016 NOSIG